createdAt,value
2023-05-10T00:01:47.764Z,35.65
2023-05-10T00:04:14.733Z,37.90
2023-05-10T00:06:41.736Z,39.95
2023-05-10T00:09:08.766Z,36.70
2023-05-10T00:11:35.778Z,37.25
2023-05-10T00:14:02.596Z,34.53
2023-05-10T00:16:29.495Z,33.15
2023-05-10T00:18:56.279Z,37.03
2023-05-10T00:21:24.279Z,36.53
2023-05-10T00:23:51.030Z,34.95
2023-05-10T00:26:17.834Z,36.92
2023-05-10T00:28:44.627Z,40.53
2023-05-10T00:31:11.502Z,38.25
2023-05-10T00:33:38.295Z,35.60
2023-05-10T00:36:05.426Z,35.13
2023-05-10T00:38:32.182Z,37.80
2023-05-10T00:40:58.895Z,35.30
2023-05-10T00:43:25.653Z,35.65
2023-05-10T00:45:52.950Z,35.20
2023-05-10T00:48:20.551Z,38.40
2023-05-10T00:50:47.476Z,40.40
2023-05-10T00:53:15.090Z,39.75
2023-05-10T00:55:42.842Z,40.42
2023-05-10T00:58:09.752Z,38.42
2023-05-10T01:00:38.450Z,38.42
2023-05-10T01:03:05.248Z,36.03
2023-05-10T01:05:32.874Z,35.75
2023-05-10T01:07:59.643Z,36.20
2023-05-10T01:10:26.589Z,37.40
2023-05-10T01:12:53.597Z,37.78
2023-05-10T01:15:21.923Z,39.67
2023-05-10T01:17:49.822Z,42.63
2023-05-10T01:20:17.083Z,41.58
2023-05-10T01:23:11.684Z,38.63
2023-05-10T01:25:42.707Z,38.58
2023-05-10T01:28:36.948Z,43.15
2023-05-10T01:31:06.674Z,44.30
2023-05-10T01:33:37.330Z,44.67
2023-05-10T01:36:12.736Z,46.03
2023-05-10T01:38:58.320Z,42.83
2023-05-10T01:41:46.183Z,44.22
2023-05-10T01:44:21.568Z,47.75
2023-05-10T01:47:10.792Z,45.55
2023-05-10T01:49:47.350Z,45.55
2023-05-10T01:52:16.907Z,44.90
2023-05-10T01:54:50.120Z,47.17
2023-05-10T01:57:18.965Z,46.67
2023-05-10T01:59:49.001Z,50.28
2023-05-10T02:02:16.488Z,51.40
2023-05-10T02:04:44.079Z,51.00
2023-05-10T02:07:11.532Z,51.80
2023-05-10T02:09:40.418Z,52.42
2023-05-10T02:12:08.076Z,55.92
2023-05-10T02:14:37.699Z,56.65
2023-05-10T02:17:08.036Z,59.60
2023-05-10T02:22:03.633Z,54.25
2023-05-10T02:24:31.375Z,61.95
2023-05-10T02:26:58.924Z,68.13
2023-05-10T02:29:28.102Z,65.32
2023-05-10T02:31:56.326Z,67.72
2023-05-10T02:34:26.312Z,72.45
2023-05-10T02:36:54.691Z,73.45
2023-05-10T02:39:22.542Z,70.28
2023-05-10T02:41:51.361Z,68.07
2023-05-10T02:44:21.222Z,75.30
2023-05-10T02:46:48.867Z,70.70
2023-05-10T02:49:16.643Z,71.63
2023-05-10T02:51:48.753Z,80.25
2023-05-10T02:54:21.455Z,70.05
2023-05-10T02:56:57.553Z,73.72
2023-05-10T02:59:24.550Z,68.03
2023-05-10T03:01:54.617Z,72.93
2023-05-10T03:04:21.601Z,73.85
2023-05-10T03:06:48.809Z,71.30
2023-05-10T03:09:16.707Z,66.75
2023-05-10T03:12:16.537Z,69.80
2023-05-10T03:15:04.865Z,68.47
2023-05-10T03:17:53.822Z,67.20
2023-05-10T03:20:23.767Z,60.30
2023-05-10T03:22:56.213Z,60.92
2023-05-10T03:25:24.307Z,58.22
2023-05-10T03:27:52.962Z,61.75
2023-05-10T03:30:20.983Z,63.90
2023-05-10T03:32:47.790Z,61.85
2023-05-10T03:35:15.299Z,60.10
2023-05-10T03:37:42.073Z,64.45
2023-05-10T03:40:09.950Z,64.03
2023-05-10T03:42:36.855Z,60.65
2023-05-10T03:45:03.794Z,63.95
2023-05-10T03:47:30.889Z,56.40
2023-05-10T03:49:57.657Z,58.45
2023-05-10T03:52:24.361Z,58.97
2023-05-10T03:54:51.159Z,57.13
2023-05-10T03:57:17.880Z,63.95
2023-05-10T03:59:44.625Z,62.47
2023-05-10T04:02:11.405Z,58.50
2023-05-10T04:04:39.174Z,63.00
2023-05-10T04:07:05.995Z,57.55
2023-05-10T04:09:33.630Z,60.63
2023-05-10T04:12:03.314Z,62.78
2023-05-10T04:14:30.163Z,58.58
2023-05-10T04:16:57.020Z,58.88
2023-05-10T04:19:24.375Z,63.50
2023-05-10T04:21:51.134Z,61.55
2023-05-10T04:24:17.920Z,66.82
2023-05-10T04:26:44.624Z,70.10
2023-05-10T04:29:11.377Z,68.68
2023-05-10T04:31:38.065Z,70.45
2023-05-10T04:34:04.774Z,72.60
2023-05-10T04:36:33.419Z,74.85
2023-05-10T04:39:00.156Z,66.35
2023-05-10T04:41:26.896Z,78.85
2023-05-10T04:43:53.656Z,78.47
2023-05-10T04:46:20.469Z,80.10
2023-05-10T04:48:47.440Z,70.50
2023-05-10T04:51:14.366Z,73.95
2023-05-10T04:53:46.460Z,74.40
2023-05-10T04:56:17.908Z,77.15
2023-05-10T04:58:44.710Z,83.03
2023-05-10T05:01:11.656Z,77.95
2023-05-10T05:03:38.537Z,78.93
2023-05-10T05:06:05.520Z,78.72
2023-05-10T05:08:32.291Z,81.78
2023-05-10T05:11:00.324Z,70.22
2023-05-10T05:13:27.188Z,72.28
2023-05-10T05:15:54.585Z,67.85
2023-05-10T05:18:21.394Z,74.90
2023-05-10T05:20:48.120Z,74.15
2023-05-10T05:23:14.827Z,74.60
2023-05-10T05:25:41.515Z,72.57
2023-05-10T05:28:08.518Z,79.13
2023-05-10T05:30:35.643Z,70.78
2023-05-10T05:33:02.390Z,70.40
2023-05-10T05:35:29.114Z,71.32
2023-05-10T05:37:56.810Z,70.95
2023-05-10T05:40:23.618Z,63.03
2023-05-10T05:42:50.757Z,64.78
2023-05-10T05:45:18.083Z,62.15
2023-05-10T05:47:45.223Z,60.30
2023-05-10T05:50:12.194Z,58.42
2023-05-10T05:52:39.041Z,59.50
2023-05-10T05:55:06.255Z,65.50
2023-05-10T05:57:32.963Z,62.88
2023-05-10T06:00:00.322Z,66.45
2023-05-10T06:02:27.152Z,57.20
2023-05-10T06:04:53.929Z,62.20
2023-05-10T06:07:21.270Z,53.33
2023-05-10T06:09:47.971Z,54.35
2023-05-10T06:12:14.667Z,52.25
2023-05-10T06:14:41.428Z,55.50
2023-05-10T06:17:08.182Z,55.22
2023-05-10T06:19:34.915Z,50.25
2023-05-10T06:22:02.021Z,54.13
2023-05-10T06:24:28.788Z,62.85
2023-05-10T06:26:55.553Z,51.65
2023-05-10T06:29:22.264Z,52.70
2023-05-10T06:31:49.194Z,45.65
2023-05-10T06:34:16.089Z,50.97
2023-05-10T06:36:43.342Z,52.83
2023-05-10T06:39:10.546Z,50.45
2023-05-10T06:41:37.326Z,50.53
2023-05-10T06:44:04.872Z,48.15
2023-05-10T06:46:31.652Z,43.88
2023-05-10T06:48:58.526Z,42.83
2023-05-10T06:51:25.545Z,40.15
2023-05-10T06:53:52.326Z,35.42
2023-05-10T06:56:19.117Z,31.40
2023-05-10T06:58:45.866Z,30.92
2023-05-10T07:01:12.658Z,28.05
2023-05-10T07:03:39.395Z,22.90
2023-05-10T07:06:11.377Z,20.20
2023-05-10T07:08:42.671Z,21.08
2023-05-10T07:11:09.450Z,19.75
2023-05-10T07:13:37.215Z,18.58
2023-05-10T07:16:04.263Z,18.67
2023-05-10T07:18:31.107Z,17.80
2023-05-10T07:20:58.639Z,18.08
2023-05-10T07:23:25.688Z,19.00
2023-05-10T07:25:53.140Z,19.63
2023-05-10T07:28:20.397Z,16.45
2023-05-10T07:30:47.615Z,19.10
2023-05-10T07:33:15.296Z,16.77
2023-05-10T07:35:42.226Z,16.20
2023-05-10T07:38:09.102Z,13.07
2023-05-10T07:40:35.829Z,15.35
2023-05-10T07:43:03.143Z,16.05
2023-05-10T07:45:30.003Z,14.85
2023-05-10T07:47:56.897Z,13.70
2023-05-10T07:50:23.874Z,12.45
2023-05-10T07:52:50.629Z,15.73
2023-05-10T07:55:20.055Z,14.98
2023-05-10T07:57:46.794Z,16.83
2023-05-10T08:00:19.293Z,15.10
2023-05-10T08:02:46.108Z,15.52
2023-05-10T08:05:13.342Z,15.23
2023-05-10T08:07:40.354Z,18.73
2023-05-10T08:10:07.951Z,14.50
2023-05-10T08:12:34.643Z,14.80
2023-05-10T08:15:01.475Z,14.85
2023-05-10T08:17:28.303Z,14.80
2023-05-10T08:19:55.113Z,17.85
2023-05-10T08:22:22.394Z,16.67
2023-05-10T08:24:49.165Z,16.70
2023-05-10T08:27:16.030Z,16.75
2023-05-10T08:29:50.155Z,15.77
2023-05-10T08:32:17.199Z,14.63
2023-05-10T08:34:44.062Z,14.82
2023-05-10T08:37:13.983Z,15.57
2023-05-10T08:39:41.061Z,15.45
2023-05-10T08:42:09.313Z,16.92
2023-05-10T08:44:37.473Z,15.68
2023-05-10T08:47:07.954Z,19.08
2023-05-10T08:49:35.782Z,16.45
2023-05-10T08:52:05.171Z,15.52
2023-05-10T08:54:33.720Z,15.05
2023-05-10T08:57:00.733Z,17.08
2023-05-10T08:59:28.278Z,14.80
2023-05-10T09:01:58.346Z,16.10
2023-05-10T09:04:25.885Z,17.33
2023-05-10T09:06:52.887Z,17.67
2023-05-10T09:09:21.358Z,15.25
2023-05-10T09:11:48.568Z,14.68
2023-05-10T09:14:16.878Z,17.40
2023-05-10T09:16:44.023Z,16.73
2023-05-10T09:19:11.377Z,14.25
2023-05-10T09:21:39.237Z,13.88
2023-05-10T09:24:08.169Z,16.27
2023-05-10T09:26:36.636Z,16.95
2023-05-10T09:29:04.498Z,14.43
2023-05-10T09:31:44.861Z,15.27
2023-05-10T09:36:50.472Z,14.13
2023-05-10T09:39:17.212Z,12.95
2023-05-10T09:41:43.992Z,13.77
2023-05-10T09:44:11.032Z,14.32
2023-05-10T09:46:38.271Z,15.93
2023-05-10T09:49:06.837Z,14.52
2023-05-10T09:51:36.166Z,16.88
2023-05-10T09:54:14.160Z,14.60
2023-05-10T09:56:43.280Z,15.65
2023-05-10T09:59:13.981Z,14.35
2023-05-10T10:01:41.869Z,16.27
2023-05-10T10:04:10.622Z,16.48
2023-05-10T10:06:38.966Z,15.05
2023-05-10T10:09:07.208Z,15.85
2023-05-10T10:11:37.258Z,14.13
2023-05-10T10:14:04.641Z,13.40
2023-05-10T10:16:32.623Z,14.68
2023-05-10T10:18:59.623Z,13.68
2023-05-10T10:21:27.284Z,10.75
2023-05-10T10:23:54.203Z,12.50
2023-05-10T10:26:22.373Z,10.68
2023-05-10T10:28:58.582Z,12.20
2023-05-10T10:31:37.557Z,14.02
2023-05-10T10:34:09.938Z,10.35
2023-05-10T10:36:49.265Z,13.45
2023-05-10T10:39:16.989Z,8.98
2023-05-10T10:41:55.776Z,8.65
2023-05-10T10:44:28.450Z,10.35
2023-05-10T10:47:12.174Z,10.65
2023-05-10T10:49:41.879Z,10.65
2023-05-10T10:52:19.520Z,9.32
2023-05-10T10:54:52.306Z,8.50
2023-05-10T10:57:20.945Z,8.77
2023-05-10T10:59:47.782Z,8.98
2023-05-10T11:02:34.139Z,9.30
2023-05-10T11:05:01.831Z,10.50
2023-05-10T11:07:28.573Z,11.98
2023-05-10T11:09:55.354Z,9.00
2023-05-10T11:12:22.110Z,12.80
2023-05-10T11:14:51.899Z,9.80
2023-05-10T11:17:25.169Z,10.45
2023-05-10T11:20:11.164Z,9.75
2023-05-10T11:22:54.361Z,9.25
2023-05-10T11:25:26.997Z,11.73
2023-05-10T11:27:53.831Z,9.75
2023-05-10T11:30:21.193Z,8.75
2023-05-10T11:32:48.178Z,7.65
2023-05-10T11:35:15.136Z,7.53
2023-05-10T11:37:44.783Z,11.32
2023-05-10T11:40:12.118Z,11.70
2023-05-10T11:42:39.273Z,11.48
2023-05-10T11:45:07.169Z,8.70
2023-05-10T11:47:33.998Z,8.02
2023-05-10T11:50:01.077Z,10.38
2023-05-10T11:52:27.873Z,10.35
2023-05-10T11:54:56.293Z,9.18
2023-05-10T11:57:27.767Z,8.95
2023-05-10T11:59:57.576Z,10.18
2023-05-10T12:02:24.774Z,8.57
2023-05-10T12:04:52.453Z,11.63
2023-05-10T12:07:19.321Z,11.55
2023-05-10T12:10:03.032Z,7.72
2023-05-10T12:12:40.356Z,8.73
2023-05-10T12:15:31.853Z,9.48
2023-05-10T12:17:58.707Z,8.30
2023-05-10T12:20:28.290Z,9.05
2023-05-10T12:22:59.628Z,9.65
2023-05-10T12:25:31.915Z,9.57
2023-05-10T12:28:01.853Z,10.57
2023-05-10T12:30:30.969Z,9.98
2023-05-10T12:33:24.115Z,8.48
2023-05-10T12:35:53.312Z,10.38
2023-05-10T12:38:33.046Z,9.00
2023-05-10T12:41:01.658Z,6.93
2023-05-10T12:43:28.806Z,8.65
2023-05-10T12:45:55.719Z,7.85
2023-05-10T12:48:22.756Z,8.65
2023-05-10T12:50:49.677Z,10.63
2023-05-10T12:53:17.319Z,9.05
2023-05-10T12:55:44.763Z,9.55
2023-05-10T12:58:15.824Z,10.98
2023-05-10T13:00:48.004Z,9.25
2023-05-10T13:03:15.699Z,9.10
2023-05-10T13:05:42.725Z,10.57
2023-05-10T13:08:09.482Z,16.15
2023-05-10T13:10:36.262Z,12.75
2023-05-10T13:13:03.671Z,14.02
2023-05-10T13:15:30.543Z,11.50
2023-05-10T13:17:57.440Z,12.57
2023-05-10T13:20:24.203Z,10.20
2023-05-10T13:22:52.207Z,9.30
2023-05-10T13:25:19.123Z,13.90
2023-05-10T13:27:45.843Z,11.90
2023-05-10T13:30:12.851Z,13.25
2023-05-10T13:32:39.759Z,11.75
2023-05-10T13:35:07.121Z,11.88
2023-05-10T13:37:36.465Z,12.75
2023-05-10T13:40:03.593Z,16.58
2023-05-10T13:42:30.282Z,14.80
2023-05-10T13:44:57.022Z,14.95
2023-05-10T13:47:23.846Z,17.00
2023-05-10T13:49:50.578Z,14.38
2023-05-10T13:52:17.361Z,17.48
2023-05-10T13:54:44.122Z,15.23
2023-05-10T13:57:12.831Z,15.55
2023-05-10T13:59:39.598Z,16.42
2023-05-10T14:02:07.719Z,15.52
2023-05-10T14:04:36.398Z,18.20
2023-05-10T14:07:03.146Z,17.90
2023-05-10T14:09:29.896Z,19.52
2023-05-10T14:11:56.869Z,16.10
2023-05-10T14:14:23.642Z,19.42
2023-05-10T14:16:50.396Z,21.50
2023-05-10T14:19:17.131Z,18.42
2023-05-10T14:21:44.272Z,22.17
2023-05-10T14:24:11.197Z,17.55
2023-05-10T14:26:37.957Z,19.15
2023-05-10T14:29:04.642Z,16.63
2023-05-10T14:31:31.836Z,17.25
2023-05-10T14:33:58.823Z,19.95
2023-05-10T14:36:25.706Z,17.48
2023-05-10T14:38:52.624Z,18.20
2023-05-10T14:41:19.414Z,18.83
2023-05-10T14:43:46.186Z,16.35
2023-05-10T14:46:13.103Z,15.85
2023-05-10T14:48:39.999Z,16.13
2023-05-10T14:51:07.453Z,18.20
2023-05-10T14:53:34.435Z,16.88
2023-05-10T14:56:02.391Z,15.38
2023-05-10T14:58:29.146Z,17.58
2023-05-10T15:00:55.927Z,15.60
2023-05-10T15:03:23.501Z,13.90
2023-05-10T15:05:50.879Z,15.30
2023-05-10T15:08:17.608Z,16.05
2023-05-10T15:10:44.455Z,14.38
2023-05-10T15:13:11.161Z,13.00
2023-05-10T15:15:38.029Z,14.30
2023-05-10T15:18:05.817Z,15.20
2023-05-10T15:20:32.724Z,13.13
2023-05-10T15:22:59.526Z,13.95
2023-05-10T15:25:26.977Z,14.02
2023-05-10T15:27:53.746Z,15.15
2023-05-10T15:30:20.808Z,15.55
2023-05-10T15:32:47.579Z,16.27
2023-05-10T15:35:15.312Z,13.70
2023-05-10T15:37:42.178Z,15.77
2023-05-10T15:40:09.283Z,13.88
2023-05-10T15:42:36.342Z,15.57
2023-05-10T15:45:03.342Z,14.63
2023-05-10T15:47:31.355Z,14.05
2023-05-10T15:49:58.130Z,16.83
2023-05-10T15:52:25.009Z,14.30
2023-05-10T15:54:51.862Z,15.65
2023-05-10T15:57:18.590Z,14.43
2023-05-10T15:59:45.885Z,18.08
2023-05-10T16:02:12.688Z,15.10
2023-05-10T16:04:39.452Z,14.50
2023-05-10T16:07:06.304Z,16.65
2023-05-10T16:09:33.008Z,13.63
2023-05-10T16:11:59.822Z,16.77
2023-05-10T16:14:26.601Z,12.63
2023-05-10T16:16:53.573Z,14.32
2023-05-10T16:19:20.544Z,16.60
2023-05-10T16:21:47.781Z,12.35
2023-05-10T16:24:14.595Z,11.30
2023-05-10T16:26:41.445Z,14.13
2023-05-10T16:29:08.876Z,10.43
2023-05-10T16:31:35.835Z,15.38
2023-05-10T16:34:02.834Z,14.02
2023-05-10T16:36:30.190Z,17.90
2023-05-10T16:38:57.055Z,15.10
2023-05-10T16:41:23.774Z,15.15
2023-05-10T16:43:50.541Z,13.35
2023-05-10T16:46:17.462Z,15.18
2023-05-10T16:48:44.306Z,12.00
2023-05-10T16:51:11.176Z,16.83
2023-05-10T16:53:37.978Z,14.30
2023-05-10T16:56:04.851Z,14.20
2023-05-10T16:58:31.782Z,14.68
2023-05-10T17:00:58.528Z,16.38
2023-05-10T17:03:25.344Z,12.70
2023-05-10T17:05:52.214Z,14.40
2023-05-10T17:08:19.006Z,13.85
2023-05-10T17:10:46.110Z,16.45
2023-05-10T17:13:12.967Z,16.33
2023-05-10T17:15:40.374Z,14.50
2023-05-10T17:18:07.625Z,14.93
2023-05-10T17:20:34.765Z,12.68
2023-05-10T17:23:03.136Z,14.50
2023-05-10T17:25:29.916Z,14.13
2023-05-10T17:27:56.626Z,14.10
2023-05-10T17:30:26.399Z,13.68
2023-05-10T17:32:54.303Z,14.13
2023-05-10T17:35:21.554Z,15.45
2023-05-10T17:37:48.378Z,16.05
2023-05-10T17:40:15.362Z,13.60
2023-05-10T17:42:42.691Z,14.85
2023-05-10T17:45:09.982Z,15.13
2023-05-10T17:47:36.780Z,14.85
2023-05-10T17:50:04.086Z,14.98
2023-05-10T17:52:33.379Z,13.40
2023-05-10T17:55:00.382Z,15.10
2023-05-10T17:57:27.114Z,15.27
2023-05-10T17:59:53.836Z,14.77
2023-05-10T18:02:20.665Z,16.30
2023-05-10T18:04:49.373Z,15.75
2023-05-10T18:07:16.516Z,13.43
2023-05-10T18:09:43.528Z,13.77
2023-05-10T18:12:10.273Z,13.98
2023-05-10T18:14:41.230Z,13.57
2023-05-10T18:17:09.544Z,14.88
2023-05-10T18:19:36.485Z,17.38
2023-05-10T18:22:03.352Z,16.33
2023-05-10T18:24:38.899Z,16.60
2023-05-10T18:27:07.997Z,18.45
2023-05-10T18:29:35.088Z,17.35
2023-05-10T18:32:01.907Z,13.10
2023-05-10T18:34:28.847Z,13.40
2023-05-10T18:36:56.293Z,13.63
2023-05-10T18:39:23.512Z,15.68
2023-05-10T18:41:50.404Z,15.63
2023-05-10T18:44:18.773Z,15.77
2023-05-10T18:46:45.583Z,14.27
2023-05-10T18:49:12.356Z,16.92
2023-05-10T18:51:39.742Z,19.35
2023-05-10T18:54:06.555Z,18.35
2023-05-10T18:56:33.660Z,12.82
2023-05-10T18:59:00.508Z,14.07
2023-05-10T19:01:27.262Z,14.02
2023-05-10T19:03:54.007Z,13.15
2023-05-10T19:06:20.945Z,13.27
2023-05-10T19:08:47.660Z,17.70
2023-05-10T19:11:14.410Z,13.70
2023-05-10T19:13:41.122Z,12.75
2023-05-10T19:16:14.363Z,16.77
2023-05-10T19:18:42.544Z,12.98
2023-05-10T19:21:10.914Z,15.90
2023-05-10T19:23:40.308Z,12.68
2023-05-10T19:26:09.317Z,12.60
2023-05-10T19:28:37.024Z,12.40
2023-05-10T19:31:03.836Z,13.02
2023-05-10T19:33:30.726Z,14.25
2023-05-10T19:35:57.480Z,14.32
2023-05-10T19:38:25.027Z,12.90
2023-05-10T19:40:59.178Z,16.80
2023-05-10T19:43:26.814Z,14.02
2023-05-10T19:45:54.328Z,15.15
2023-05-10T19:48:21.037Z,15.30
2023-05-10T19:50:47.813Z,18.33
2023-05-10T19:53:14.662Z,15.38
2023-05-10T19:55:41.691Z,15.63
2023-05-10T19:58:08.657Z,14.73
2023-05-10T20:00:35.817Z,15.65
2023-05-10T20:03:03.123Z,13.60
2023-05-10T20:05:29.989Z,16.00
2023-05-10T20:07:56.750Z,16.95
2023-05-10T20:10:25.177Z,16.10
2023-05-10T20:12:53.860Z,17.52
2023-05-10T20:15:22.161Z,16.45
2023-05-10T20:17:53.807Z,15.63
2023-05-10T20:20:21.596Z,18.25
2023-05-10T20:22:49.385Z,20.33
2023-05-10T20:25:17.543Z,17.00
2023-05-10T20:27:44.773Z,17.52
2023-05-10T20:30:12.041Z,22.15
2023-05-10T20:32:39.484Z,18.75
2023-05-10T20:35:07.155Z,16.08
2023-05-10T20:37:34.109Z,18.73
2023-05-10T20:40:01.105Z,16.67
2023-05-10T20:42:27.871Z,22.25
2023-05-10T20:44:54.671Z,24.13
2023-05-10T20:47:23.388Z,21.80
2023-05-10T20:49:50.642Z,21.67
2023-05-10T20:52:17.438Z,41.80
2023-05-10T20:54:44.239Z,29.02
2023-05-10T20:57:12.983Z,21.08
2023-05-10T20:59:40.726Z,23.08
2023-05-10T21:02:07.559Z,21.58
2023-05-10T21:04:34.282Z,21.17
2023-05-10T21:07:01.114Z,17.17
2023-05-10T21:09:27.846Z,19.17
2023-05-10T21:11:54.617Z,21.15
2023-05-10T21:14:21.359Z,23.77
2023-05-10T21:16:48.109Z,19.52
2023-05-10T21:19:14.893Z,20.73
2023-05-10T21:21:41.712Z,24.40
2023-05-10T21:24:08.505Z,20.77
2023-05-10T21:26:35.371Z,22.65
2023-05-10T21:29:02.669Z,20.20
2023-05-10T21:31:29.819Z,20.13
2023-05-10T21:33:57.115Z,18.77
2023-05-10T21:36:25.071Z,22.30
2023-05-10T21:38:51.813Z,22.33
2023-05-10T21:41:18.689Z,22.58
2023-05-10T21:43:45.558Z,20.85
2023-05-10T21:46:13.531Z,20.90
2023-05-10T21:48:40.283Z,22.02
2023-05-10T21:51:07.370Z,22.98
2023-05-10T21:53:35.722Z,19.40
2023-05-10T21:56:02.547Z,19.05
2023-05-10T21:58:29.287Z,21.70
2023-05-10T22:00:56.142Z,20.27
2023-05-10T22:03:23.820Z,19.80
2023-05-10T22:05:50.781Z,20.60
2023-05-10T22:08:17.522Z,18.25
2023-05-10T22:10:44.229Z,22.60
2023-05-10T22:13:11.093Z,22.85
2023-05-10T22:15:37.878Z,24.33
2023-05-10T22:18:04.955Z,19.00
2023-05-10T22:20:31.704Z,19.25
2023-05-10T22:22:58.428Z,22.42
2023-05-10T22:25:25.151Z,26.20
2023-05-10T22:27:52.147Z,19.73
2023-05-10T22:30:19.914Z,19.85
2023-05-10T22:32:47.211Z,19.42
2023-05-10T22:35:14.031Z,19.05
2023-05-10T22:37:40.882Z,19.15
2023-05-10T22:40:08.226Z,16.50
2023-05-10T22:42:34.976Z,17.88
2023-05-10T22:45:01.693Z,17.15
2023-05-10T22:47:28.622Z,18.08
2023-05-10T22:49:56.110Z,20.27
2023-05-10T22:52:22.874Z,20.85
2023-05-10T22:54:49.664Z,23.13
2023-05-10T22:57:17.282Z,20.48
2023-05-10T22:59:44.021Z,22.42
2023-05-10T23:02:11.376Z,23.00
2023-05-10T23:04:38.247Z,20.77
2023-05-10T23:07:05.158Z,22.10
2023-05-10T23:09:31.921Z,24.55
2023-05-10T23:11:58.586Z,22.02
2023-05-10T23:14:25.359Z,23.70
2023-05-10T23:16:52.122Z,21.52
2023-05-10T23:19:19.137Z,24.33
2023-05-10T23:21:45.950Z,24.52
2023-05-10T23:24:13.553Z,25.98
2023-05-10T23:26:40.500Z,24.52
2023-05-10T23:29:07.273Z,21.75
2023-05-10T23:31:34.012Z,26.35
2023-05-10T23:34:00.768Z,24.73
2023-05-10T23:36:27.504Z,23.48
2023-05-10T23:38:54.263Z,24.00
2023-05-10T23:41:21.182Z,27.65
2023-05-10T23:43:47.923Z,22.90
2023-05-10T23:46:14.703Z,22.45
2023-05-10T23:48:41.553Z,23.15
2023-05-10T23:51:08.328Z,22.65
2023-05-10T23:53:35.065Z,26.02
2023-05-10T23:56:01.800Z,25.58
2023-05-10T23:58:29.558Z,23.42
